createdAt,value
2019-02-14T00:00:12.694Z,75.40
2019-02-14T00:01:12.700Z,75.81
2019-02-14T00:02:12.671Z,75.92
2019-02-14T00:03:12.657Z,75.92
2019-02-14T00:04:12.646Z,75.60
2019-02-14T00:05:16.552Z,76.12
2019-02-14T00:06:12.643Z,76.12
2019-02-14T00:07:12.612Z,75.60
2019-02-14T00:08:12.597Z,75.50
2019-02-14T00:09:12.585Z,75.81
2019-02-14T00:10:12.603Z,75.50
2019-02-14T00:11:12.581Z,74.95
2019-02-14T00:12:12.549Z,74.88
2019-02-14T00:13:12.537Z,74.63
2019-02-14T00:14:12.528Z,74.32
2019-02-14T00:15:12.548Z,74.84
2019-02-14T00:16:12.529Z,74.63
2019-02-14T00:17:12.490Z,74.77
2019-02-14T00:18:12.476Z,74.77
2019-02-14T00:19:12.471Z,74.88
2019-02-14T00:20:12.453Z,74.63
2019-02-14T00:21:12.444Z,74.95
2019-02-14T00:22:12.448Z,75.09
2019-02-14T00:23:12.429Z,74.88
2019-02-14T00:24:12.406Z,74.88
2019-02-14T00:25:12.394Z,74.88
2019-02-14T00:26:12.388Z,74.74
2019-02-14T00:27:12.399Z,74.88
2019-02-14T00:28:12.360Z,74.95
2019-02-14T00:29:12.352Z,74.63
2019-02-14T00:30:12.336Z,74.67
2019-02-14T00:31:12.330Z,74.63
2019-02-14T00:32:12.334Z,74.88
2019-02-14T00:33:12.307Z,74.98
2019-02-14T00:34:12.290Z,74.74
2019-02-14T00:35:12.279Z,75.09
2019-02-14T00:36:12.268Z,74.63
2019-02-14T00:37:12.279Z,74.77
2019-02-14T00:38:12.244Z,74.74
2019-02-14T00:39:12.237Z,74.77
2019-02-14T00:40:12.226Z,74.77
2019-02-14T00:41:12.211Z,74.63
2019-02-14T00:42:12.216Z,74.63
2019-02-14T00:43:12.251Z,74.74
2019-02-14T00:44:12.206Z,74.63
2019-02-14T00:45:12.162Z,74.46
2019-02-14T00:46:12.150Z,74.43
2019-02-14T00:47:12.162Z,74.63
2019-02-14T00:48:12.129Z,74.53
2019-02-14T00:49:12.117Z,74.53
2019-02-14T00:50:12.104Z,74.63
2019-02-14T00:51:12.092Z,74.43
2019-02-14T00:52:12.079Z,75.05
2019-02-14T00:53:12.088Z,74.84
2019-02-14T00:54:12.055Z,75.05
2019-02-14T00:55:12.046Z,74.01
2019-02-14T00:56:12.035Z,73.91
2019-02-14T00:57:12.023Z,73.91
2019-02-14T00:58:12.029Z,74.74
2019-02-14T00:59:11.999Z,74.63
2019-02-14T01:00:11.988Z,73.91
2019-02-14T01:01:11.977Z,73.60
2019-02-14T01:02:11.964Z,74.01
2019-02-14T01:03:11.971Z,73.91
2019-02-14T01:04:11.946Z,73.70
2019-02-14T01:05:11.928Z,74.01
2019-02-14T01:06:11.920Z,74.22
2019-02-14T01:07:11.907Z,74.57
2019-02-14T01:08:11.913Z,74.74
2019-02-14T01:09:11.882Z,74.63
2019-02-14T01:10:11.870Z,74.88
2019-02-14T01:11:11.859Z,74.98
2019-02-14T01:12:11.845Z,74.88
2019-02-14T01:13:11.864Z,74.63
2019-02-14T01:14:11.879Z,75.40
2019-02-14T01:15:11.819Z,74.98
2019-02-14T01:16:11.802Z,74.95
2019-02-14T01:17:11.786Z,74.98
2019-02-14T01:18:11.774Z,75.09
2019-02-14T01:19:11.781Z,74.88
2019-02-14T01:20:11.749Z,74.98
2019-02-14T01:21:11.739Z,74.77
2019-02-14T01:22:11.730Z,75.40
2019-02-14T01:23:11.714Z,75.19
2019-02-14T01:24:11.721Z,75.19
2019-02-14T01:25:11.692Z,75.12
2019-02-14T01:26:11.680Z,75.92
2019-02-14T01:27:11.666Z,76.33
2019-02-14T01:28:11.655Z,76.16
2019-02-14T01:29:11.663Z,77.09
2019-02-14T01:30:11.631Z,76.75
2019-02-14T01:31:11.621Z,76.78
2019-02-14T01:32:11.619Z,77.40
2019-02-14T01:33:11.599Z,77.51
2019-02-14T01:34:11.643Z,78.34
2019-02-14T01:35:11.573Z,77.85
2019-02-14T01:36:11.562Z,78.37
2019-02-14T01:37:11.549Z,78.37
2019-02-14T01:38:11.537Z,78.68
2019-02-14T01:39:11.541Z,78.78
2019-02-14T01:40:11.513Z,78.47
2019-02-14T01:41:11.501Z,78.68
2019-02-14T01:42:11.490Z,78.47
2019-02-14T01:43:11.478Z,78.47
2019-02-14T01:44:11.488Z,78.51
2019-02-14T01:45:11.455Z,78.37
2019-02-14T01:46:11.443Z,78.27
2019-02-14T01:47:11.436Z,78.58
2019-02-14T01:48:11.421Z,78.47
2019-02-14T01:49:11.429Z,78.47
2019-02-14T01:50:11.397Z,78.30
2019-02-14T01:51:11.385Z,78.27
2019-02-14T01:52:11.373Z,78.16
2019-02-14T01:53:11.362Z,78.27
2019-02-14T01:54:11.391Z,78.16
2019-02-14T01:55:11.339Z,78.06
2019-02-14T01:56:11.327Z,78.27
2019-02-14T01:57:11.315Z,77.99
2019-02-14T01:58:11.306Z,78.20
2019-02-14T01:59:11.292Z,77.99
2019-02-14T02:00:11.306Z,77.58
2019-02-14T02:01:11.269Z,77.85
2019-02-14T02:02:11.258Z,77.78
2019-02-14T02:03:11.245Z,77.95
2019-02-14T02:04:11.236Z,77.68
2019-02-14T02:05:11.242Z,77.78
2019-02-14T02:06:11.214Z,77.68
2019-02-14T02:07:11.203Z,77.47
2019-02-14T02:08:11.190Z,77.89
2019-02-14T02:09:11.178Z,77.78
2019-02-14T02:10:11.185Z,77.89
2019-02-14T02:11:11.162Z,78.03
2019-02-14T02:12:11.143Z,77.47
2019-02-14T02:13:11.133Z,77.37
2019-02-14T02:14:11.121Z,77.06
2019-02-14T02:15:11.127Z,77.16
2019-02-14T02:16:11.100Z,76.85
2019-02-14T02:17:11.086Z,76.64
2019-02-14T02:18:11.075Z,76.12
2019-02-14T02:19:11.062Z,76.54
2019-02-14T02:20:11.068Z,75.50
2019-02-14T02:21:11.041Z,75.60
2019-02-14T02:22:11.028Z,75.46
2019-02-14T02:23:11.018Z,75.05
2019-02-14T02:24:11.025Z,74.74
2019-02-14T02:25:10.995Z,74.63
2019-02-14T02:26:10.984Z,74.71
2019-02-14T02:27:10.972Z,74.74
2019-02-14T02:28:10.960Z,75.05
2019-02-14T02:29:10.974Z,74.74
2019-02-14T02:30:10.939Z,74.84
2019-02-14T02:31:10.932Z,74.22
2019-02-14T02:32:10.913Z,73.80
2019-02-14T02:33:10.901Z,73.70
2019-02-14T02:34:10.890Z,73.36
2019-02-14T02:35:10.895Z,72.84
2019-02-14T02:36:10.865Z,72.74
2019-02-14T02:37:10.857Z,72.84
2019-02-14T02:38:10.842Z,72.84
2019-02-14T02:39:10.831Z,73.25
2019-02-14T02:40:10.835Z,73.36
2019-02-14T02:41:10.814Z,73.67
2019-02-14T02:42:10.795Z,73.46
2019-02-14T02:43:10.782Z,73.88
2019-02-14T02:44:10.770Z,74.95
2019-02-14T02:45:10.787Z,74.74
2019-02-14T02:46:10.745Z,74.84
2019-02-14T02:47:10.761Z,74.63
2019-02-14T02:48:10.724Z,74.84
2019-02-14T02:49:10.712Z,74.53
2019-02-14T02:50:10.704Z,74.74
2019-02-14T02:51:10.705Z,74.74
2019-02-14T02:52:10.677Z,74.84
2019-02-14T02:53:10.665Z,74.63
2019-02-14T02:54:10.654Z,74.63
2019-02-14T02:55:10.653Z,74.63
2019-02-14T02:56:10.653Z,74.63
2019-02-14T02:57:10.623Z,74.84
2019-02-14T02:58:10.609Z,74.98
2019-02-14T02:59:10.596Z,74.74
2019-02-14T03:00:10.586Z,75.36
2019-02-14T03:01:10.572Z,74.98
2019-02-14T03:02:10.582Z,74.74
2019-02-14T03:03:10.548Z,74.88
2019-02-14T03:04:10.535Z,74.77
2019-02-14T03:05:10.524Z,74.84
2019-02-14T03:06:11.031Z,74.84
2019-02-14T03:07:10.520Z,75.09
2019-02-14T03:08:10.497Z,75.09
2019-02-14T03:09:10.482Z,75.71
2019-02-14T03:10:10.468Z,76.23
2019-02-14T03:11:10.453Z,76.12
2019-02-14T03:12:10.458Z,76.47
2019-02-14T03:13:10.429Z,76.68
2019-02-14T03:14:10.420Z,76.75
2019-02-14T03:15:10.405Z,76.89
2019-02-14T03:16:10.392Z,77.30
2019-02-14T03:17:10.401Z,77.09
2019-02-14T03:18:10.370Z,77.30
2019-02-14T03:19:10.359Z,76.78
2019-02-14T03:20:10.352Z,76.89
2019-02-14T03:21:10.340Z,77.20
2019-02-14T03:22:10.357Z,76.99
2019-02-14T03:23:10.314Z,76.85
2019-02-14T03:24:10.304Z,76.68
2019-02-14T03:25:10.292Z,76.57
2019-02-14T03:26:10.281Z,77.09
2019-02-14T03:27:10.268Z,77.09
2019-02-14T03:28:10.276Z,77.40
2019-02-14T03:29:10.246Z,76.89
2019-02-14T03:30:10.236Z,77.72
2019-02-14T03:31:10.225Z,77.72
2019-02-14T03:32:10.216Z,77.96
2019-02-14T03:33:10.219Z,77.51
2019-02-14T03:34:10.194Z,77.92
2019-02-14T03:35:10.181Z,77.65
2019-02-14T03:36:18.418Z,78.17
2019-02-14T03:37:11.155Z,77.61
2019-02-14T03:38:10.161Z,78.13
2019-02-14T03:39:10.136Z,78.13
2019-02-14T03:40:10.123Z,78.17
2019-02-14T03:41:10.110Z,78.38
2019-02-14T03:42:10.100Z,78.69
2019-02-14T03:43:10.133Z,78.58
2019-02-14T03:44:10.077Z,78.48
2019-02-14T03:45:10.066Z,78.48
2019-02-14T03:46:10.054Z,78.69
2019-02-14T03:47:10.043Z,78.69
2019-02-14T03:48:10.032Z,78.38
2019-02-14T03:49:10.040Z,78.48
2019-02-14T03:50:10.013Z,78.48
2019-02-14T03:51:10.006Z,78.48
2019-02-14T03:52:09.994Z,79.00
2019-02-14T03:53:09.974Z,79.21
2019-02-14T03:54:09.981Z,79.00
2019-02-14T03:55:09.950Z,79.10
2019-02-14T03:56:09.938Z,79.21
2019-02-14T03:57:09.930Z,79.31
2019-02-14T03:58:09.917Z,79.45
2019-02-14T03:59:09.943Z,79.24
2019-02-14T04:00:09.893Z,79.03
2019-02-14T04:01:09.882Z,79.55
2019-02-14T04:02:09.870Z,79.14
2019-02-14T04:03:09.857Z,79.17
2019-02-14T04:04:09.847Z,80.29
2019-02-14T04:05:09.856Z,79.24
2019-02-14T04:06:09.827Z,79.24
2019-02-14T04:07:09.814Z,79.55
2019-02-14T04:08:09.802Z,79.45
2019-02-14T04:09:09.789Z,79.03
2019-02-14T04:10:09.819Z,79.03
2019-02-14T04:11:09.765Z,79.03
2019-02-14T04:12:09.754Z,79.28
2019-02-14T04:13:09.745Z,79.66
2019-02-14T04:14:09.741Z,79.35
2019-02-14T04:15:09.720Z,79.38
2019-02-14T04:16:09.726Z,79.17
2019-02-14T04:17:09.698Z,79.17
2019-02-14T04:18:09.687Z,78.93
2019-02-14T04:19:09.674Z,79.45
2019-02-14T04:20:09.666Z,79.24
2019-02-14T04:21:09.675Z,79.03
2019-02-14T04:22:09.639Z,78.93
2019-02-14T04:23:09.628Z,78.83
2019-02-14T04:24:09.616Z,78.62
2019-02-14T04:25:09.606Z,78.86
2019-02-14T04:26:09.593Z,78.72
2019-02-14T04:27:09.605Z,78.86
2019-02-14T04:28:09.571Z,79.03
2019-02-14T04:29:09.559Z,78.72
2019-02-14T04:30:09.549Z,78.86
2019-02-14T04:31:09.537Z,78.83
2019-02-14T04:32:09.543Z,78.52
2019-02-14T04:33:09.518Z,78.83
2019-02-14T04:34:09.502Z,78.41
2019-02-14T04:35:09.500Z,78.00
2019-02-14T04:36:09.483Z,78.62
2019-02-14T04:37:09.490Z,78.31
2019-02-14T04:38:09.459Z,78.52
2019-02-14T04:39:09.446Z,78.31
2019-02-14T04:40:09.435Z,78.62
2019-02-14T04:41:09.424Z,78.52
2019-02-14T04:42:09.434Z,78.45
2019-02-14T04:43:09.411Z,78.62
2019-02-14T04:44:09.391Z,78.52
2019-02-14T04:45:09.379Z,78.83
2019-02-14T04:46:09.370Z,78.41
2019-02-14T04:47:09.382Z,78.72
2019-02-14T04:48:09.345Z,78.83
2019-02-14T04:49:09.334Z,79.14
2019-02-14T04:50:09.323Z,79.03
2019-02-14T04:51:09.311Z,78.83
2019-02-14T04:52:09.303Z,78.97
2019-02-14T04:53:09.308Z,79.17
2019-02-14T04:54:09.277Z,79.24
2019-02-14T04:55:09.265Z,79.17
2019-02-14T04:56:09.261Z,79.14
2019-02-14T04:57:09.253Z,79.35
2019-02-14T04:58:09.274Z,79.07
2019-02-14T04:59:09.220Z,78.97
2019-02-14T05:00:09.210Z,79.35
2019-02-14T05:01:09.199Z,79.28
2019-02-14T05:02:09.186Z,80.32
2019-02-14T05:03:09.203Z,79.80
2019-02-14T05:04:09.184Z,80.22
2019-02-14T05:05:09.154Z,80.63
2019-02-14T05:06:09.144Z,80.67
2019-02-14T05:07:09.130Z,81.60
2019-02-14T05:08:09.137Z,81.29
2019-02-14T05:09:09.111Z,81.09
2019-02-14T05:10:09.101Z,81.60
2019-02-14T05:11:09.085Z,81.50
2019-02-14T05:12:09.078Z,81.85
2019-02-14T05:13:09.085Z,82.06
2019-02-14T05:14:09.051Z,82.58
2019-02-14T05:15:09.043Z,83.10
2019-02-14T05:16:09.035Z,83.00
2019-02-14T05:17:09.017Z,83.00
2019-02-14T05:18:09.006Z,82.89
2019-02-14T05:19:09.012Z,83.42
2019-02-14T05:20:08.985Z,83.73
2019-02-14T05:21:08.975Z,83.42
2019-02-14T05:22:08.962Z,83.52
2019-02-14T05:23:08.950Z,83.66
2019-02-14T05:24:08.961Z,83.10
2019-02-14T05:25:08.930Z,83.20
2019-02-14T05:26:08.919Z,83.52
2019-02-14T05:27:08.905Z,83.25
2019-02-14T05:28:08.897Z,83.52
2019-02-14T05:29:08.907Z,83.62
2019-02-14T05:30:08.874Z,83.66
2019-02-14T05:31:08.865Z,83.31
2019-02-14T05:32:08.849Z,83.56
2019-02-14T05:33:08.838Z,83.66
2019-02-14T05:34:08.846Z,83.97
2019-02-14T05:35:08.815Z,84.18
2019-02-14T05:36:08.806Z,83.76
2019-02-14T05:37:08.798Z,83.70
2019-02-14T05:38:08.782Z,84.28
2019-02-14T05:39:08.788Z,84.08
2019-02-14T05:40:08.760Z,84.08
2019-02-14T05:41:08.745Z,84.18
2019-02-14T05:42:08.739Z,83.76
2019-02-14T05:43:08.727Z,83.70
2019-02-14T05:44:08.737Z,85.71
2019-02-14T05:45:08.703Z,84.70
2019-02-14T05:46:08.698Z,84.04
2019-02-14T05:47:08.679Z,83.66
2019-02-14T05:48:08.667Z,83.35
2019-02-14T05:49:08.674Z,83.14
2019-02-14T05:50:08.659Z,83.45
2019-02-14T05:51:08.633Z,83.45
2019-02-14T05:52:08.628Z,83.45
2019-02-14T05:53:08.610Z,83.45
2019-02-14T05:54:08.619Z,83.35
2019-02-14T05:55:08.588Z,83.25
2019-02-14T05:56:08.580Z,83.76
2019-02-14T05:57:08.564Z,83.35
2019-02-14T05:58:08.555Z,83.25
2019-02-14T05:59:08.561Z,82.72
2019-02-14T06:00:08.530Z,82.62
2019-02-14T06:01:08.517Z,82.93
2019-02-14T06:02:08.509Z,83.14
2019-02-14T06:03:08.499Z,82.93
2019-02-14T06:04:08.503Z,83.31
2019-02-14T06:05:08.474Z,81.99
2019-02-14T06:06:08.462Z,82.06
2019-02-14T06:07:08.452Z,82.48
2019-02-14T06:08:08.439Z,81.85
2019-02-14T06:09:08.447Z,81.58
2019-02-14T06:10:08.422Z,81.68
2019-02-14T06:11:08.404Z,81.43
2019-02-14T06:12:08.395Z,81.65
2019-02-14T06:13:08.382Z,82.41
2019-02-14T06:14:08.394Z,81.96
2019-02-14T06:15:08.360Z,81.68
2019-02-14T06:16:08.347Z,81.43
2019-02-14T06:17:08.337Z,81.47
2019-02-14T06:18:08.325Z,81.54
2019-02-14T06:19:08.334Z,81.54
2019-02-14T06:20:08.305Z,81.75
2019-02-14T06:21:08.292Z,80.91
2019-02-14T06:22:08.281Z,81.43
2019-02-14T06:23:08.274Z,80.40
2019-02-14T06:24:08.281Z,80.29
2019-02-14T06:25:08.258Z,80.71
2019-02-14T06:26:08.244Z,80.71
2019-02-14T06:27:08.225Z,80.29
2019-02-14T06:28:08.213Z,80.08
2019-02-14T06:29:08.201Z,79.87
2019-02-14T06:30:08.209Z,79.98
2019-02-14T06:31:08.180Z,79.87
2019-02-14T06:32:08.171Z,79.87
2019-02-14T06:33:08.156Z,80.29
2019-02-14T06:34:08.146Z,79.66
2019-02-14T06:35:08.177Z,80.29
2019-02-14T06:36:08.124Z,79.56
2019-02-14T06:37:09.925Z,79.25
2019-02-14T06:38:08.101Z,78.69
2019-02-14T06:39:08.090Z,78.83
2019-02-14T06:40:08.081Z,79.04
2019-02-14T06:41:08.088Z,78.94
2019-02-14T06:42:08.058Z,79.14
2019-02-14T06:43:08.048Z,79.94
2019-02-14T06:44:08.035Z,79.52
2019-02-14T06:45:08.024Z,79.11
2019-02-14T06:46:08.028Z,78.59
2019-02-14T06:47:08.000Z,78.49
2019-02-14T06:48:07.989Z,78.55
2019-02-14T06:49:07.981Z,78.59
2019-02-14T06:50:07.965Z,78.59
2019-02-14T06:51:07.994Z,78.90
2019-02-14T06:52:07.942Z,78.69
2019-02-14T06:53:07.930Z,79.42
2019-02-14T06:54:07.919Z,79.11
2019-02-14T06:55:07.909Z,79.32
2019-02-14T06:56:07.901Z,80.46
2019-02-14T06:57:07.906Z,79.73
2019-02-14T06:58:07.875Z,79.73
2019-02-14T06:59:07.862Z,80.88
2019-02-14T07:00:07.855Z,81.23
2019-02-14T07:01:07.862Z,81.54
2019-02-14T07:02:07.829Z,81.85
2019-02-14T07:03:07.818Z,81.68
2019-02-14T07:04:07.808Z,82.68
2019-02-14T07:05:07.795Z,83.25
2019-02-14T07:06:07.804Z,83.14
2019-02-14T07:07:07.773Z,82.93
2019-02-14T07:08:07.761Z,83.35
2019-02-14T07:09:07.754Z,83.25
2019-02-14T07:10:07.739Z,83.87
2019-02-14T07:11:07.749Z,83.45
2019-02-14T07:12:07.718Z,83.66
2019-02-14T07:13:07.708Z,83.87
2019-02-14T07:14:07.694Z,84.33
2019-02-14T07:15:07.683Z,84.39
2019-02-14T07:16:09.547Z,84.12
2019-02-14T07:17:07.662Z,84.22
2019-02-14T07:18:07.648Z,85.53
2019-02-14T07:19:07.640Z,87.89
2019-02-14T07:20:07.629Z,85.53
2019-02-14T07:21:07.634Z,83.62
2019-02-14T07:22:07.605Z,83.45
2019-02-14T07:23:07.594Z,83.76
2019-02-14T07:24:07.582Z,83.35
2019-02-14T07:25:07.572Z,83.56
2019-02-14T07:26:07.582Z,83.76
2019-02-14T07:27:07.546Z,84.08
2019-02-14T07:28:07.538Z,84.22
2019-02-14T07:29:07.526Z,83.91
2019-02-14T07:30:07.513Z,84.08
2019-02-14T07:31:07.521Z,83.56
2019-02-14T07:32:07.490Z,83.56
2019-02-14T07:33:07.479Z,83.25
2019-02-14T07:34:07.472Z,83.39
2019-02-14T07:35:07.459Z,83.66
2019-02-14T07:36:07.472Z,83.14
2019-02-14T07:37:07.434Z,82.93
2019-02-14T07:38:07.428Z,82.51
2019-02-14T07:39:07.414Z,82.72
2019-02-14T07:40:07.399Z,83.25
2019-02-14T07:41:07.389Z,83.35
2019-02-14T07:42:07.395Z,83.20
2019-02-14T07:43:07.365Z,83.20
2019-02-14T07:44:07.354Z,83.10
2019-02-14T07:45:07.342Z,83.10
2019-02-14T07:46:07.332Z,81.81
2019-02-14T07:47:07.338Z,81.60
2019-02-14T07:48:07.311Z,81.05
2019-02-14T07:49:07.299Z,81.26
2019-02-14T07:50:07.286Z,81.57
2019-02-14T07:51:07.274Z,80.84
2019-02-14T07:52:07.285Z,79.91
2019-02-14T07:53:07.254Z,80.18
2019-02-14T07:54:07.246Z,79.21
2019-02-14T07:55:07.282Z,77.72
2019-02-14T07:56:07.219Z,76.92
2019-02-14T07:57:07.207Z,75.26
2019-02-14T07:58:07.214Z,74.95
2019-02-14T07:59:07.193Z,74.91
2019-02-14T08:00:07.173Z,74.95
2019-02-14T08:01:07.161Z,74.81
2019-02-14T08:02:07.151Z,74.05
2019-02-14T08:03:07.163Z,71.67
2019-02-14T08:04:07.129Z,68.33
2019-02-14T08:05:07.117Z,65.59
2019-02-14T08:06:07.105Z,62.18
2019-02-14T08:07:07.093Z,58.85
2019-02-14T08:08:07.083Z,56.54
2019-02-14T08:09:07.087Z,54.61
2019-02-14T08:10:07.057Z,53.00
2019-02-14T08:11:07.049Z,54.18
2019-02-14T08:12:07.036Z,55.21
2019-02-14T08:13:07.022Z,54.25
2019-02-14T08:14:07.030Z,52.77
2019-02-14T08:15:06.999Z,53.10
2019-02-14T08:16:06.987Z,54.82
2019-02-14T08:17:06.975Z,57.64
2019-02-14T08:18:06.969Z,56.98
2019-02-14T08:19:06.971Z,57.05
2019-02-14T08:20:06.939Z,56.23
2019-02-14T08:21:06.929Z,56.38
2019-02-14T08:22:06.916Z,59.30
2019-02-14T08:23:06.905Z,61.65
2019-02-14T08:24:06.921Z,63.28
2019-02-14T08:25:06.882Z,64.73
2019-02-14T08:26:10.744Z,65.06
2019-02-14T08:27:06.860Z,65.69
2019-02-14T08:28:06.846Z,65.58
2019-02-14T08:29:06.833Z,65.66
2019-02-14T08:30:06.864Z,65.52
2019-02-14T08:31:06.813Z,64.04
2019-02-14T08:32:06.799Z,63.81
2019-02-14T08:33:06.787Z,63.71
2019-02-14T08:34:06.775Z,63.19
2019-02-14T08:35:06.868Z,62.37
2019-02-14T08:36:06.752Z,62.03
2019-02-14T08:37:06.742Z,61.38
2019-02-14T08:38:06.732Z,60.17
2019-02-14T08:39:06.736Z,58.80
2019-02-14T08:40:06.706Z,57.62
2019-02-14T08:41:06.694Z,56.20
2019-02-14T08:42:06.682Z,54.18
2019-02-14T08:43:06.670Z,52.06
2019-02-14T08:44:06.675Z,52.19
2019-02-14T08:45:06.647Z,52.56
2019-02-14T08:46:06.637Z,54.23
2019-02-14T08:47:06.625Z,55.08
2019-02-14T08:48:06.615Z,54.28
2019-02-14T08:49:06.626Z,52.51
2019-02-14T08:50:06.589Z,52.97
2019-02-14T08:51:06.576Z,54.82
2019-02-14T08:52:06.566Z,54.02
2019-02-14T08:53:06.555Z,54.46
2019-02-14T08:54:06.583Z,55.38
2019-02-14T08:55:06.530Z,55.18
2019-02-14T08:56:06.535Z,55.72
2019-02-14T08:57:06.510Z,55.18
2019-02-14T08:58:06.508Z,55.28
2019-02-14T08:59:06.482Z,52.77
2019-02-14T09:00:06.494Z,52.80
2019-02-14T09:01:06.458Z,51.01
2019-02-14T09:02:06.447Z,50.07
2019-02-14T09:03:06.439Z,49.46
2019-02-14T09:04:06.425Z,46.92
2019-02-14T09:05:06.413Z,46.81
2019-02-14T09:06:06.420Z,46.78
2019-02-14T09:07:06.387Z,47.83
2019-02-14T09:08:06.377Z,46.41
2019-02-14T09:09:06.365Z,46.63
2019-02-14T09:10:06.353Z,48.10
2019-02-14T09:11:06.371Z,48.64
2019-02-14T09:12:06.334Z,49.81
2019-02-14T09:13:06.321Z,49.93
2019-02-14T09:14:06.307Z,50.12
2019-02-14T09:15:06.295Z,50.32
2019-02-14T09:16:06.304Z,49.60
2019-02-14T09:17:06.285Z,50.17
2019-02-14T09:18:07.838Z,49.92
2019-02-14T09:19:06.249Z,48.16
2019-02-14T09:20:06.240Z,47.53
2019-02-14T09:21:06.246Z,48.55
2019-02-14T09:22:06.214Z,48.44
2019-02-14T09:23:06.207Z,48.39
2019-02-14T09:24:06.190Z,48.10
2019-02-14T09:25:06.179Z,48.51
2019-02-14T09:26:06.190Z,50.07
2019-02-14T09:27:06.157Z,49.74
2019-02-14T09:28:06.144Z,49.43
2019-02-14T09:29:06.135Z,48.82
2019-02-14T09:30:06.122Z,50.25
2019-02-14T09:31:06.110Z,50.12
2019-02-14T09:32:06.121Z,47.40
2019-02-14T09:33:06.086Z,47.46
2019-02-14T09:34:06.075Z,46.15
2019-02-14T09:35:06.062Z,44.16
2019-02-14T09:36:06.051Z,42.25
2019-02-14T09:37:06.039Z,41.34
2019-02-14T09:38:06.044Z,40.61
2019-02-14T09:39:06.014Z,39.50
2019-02-14T09:40:06.003Z,40.57
2019-02-14T09:41:05.995Z,39.34
2019-02-14T09:42:05.981Z,38.96
2019-02-14T09:43:05.990Z,36.72
2019-02-14T09:44:05.957Z,36.19
2019-02-14T09:45:05.960Z,35.58
2019-02-14T09:46:05.936Z,35.88
2019-02-14T09:47:05.920Z,36.51
2019-02-14T09:48:05.924Z,36.27
2019-02-14T09:49:05.920Z,34.91
2019-02-14T09:50:05.887Z,33.69
2019-02-14T09:51:05.876Z,34.49
2019-02-14T09:52:05.916Z,32.97
2019-02-14T09:53:05.850Z,34.07
2019-02-14T09:54:05.860Z,34.54
2019-02-14T09:55:05.827Z,34.61
2019-02-14T09:56:05.816Z,36.19
2019-02-14T09:57:05.804Z,38.50
2019-02-14T09:58:05.806Z,39.04
2019-02-14T09:59:05.815Z,39.28
2019-02-14T10:00:05.803Z,40.70
2019-02-14T10:01:05.759Z,41.01
2019-02-14T10:02:05.745Z,39.47
2019-02-14T10:03:05.733Z,38.64
2019-02-14T10:04:05.722Z,38.28
2019-02-14T10:05:05.735Z,36.93
2019-02-14T10:06:05.709Z,37.21
2019-02-14T10:07:05.691Z,35.77
2019-02-14T10:08:12.515Z,36.13
2019-02-14T10:09:06.682Z,35.85
2019-02-14T10:10:05.660Z,36.71
2019-02-14T10:11:05.672Z,36.68
2019-02-14T10:12:05.627Z,37.10
2019-02-14T10:13:05.613Z,36.37
2019-02-14T10:14:05.603Z,36.98
2019-02-14T10:15:05.590Z,37.59
2019-02-14T10:16:05.597Z,35.70
2019-02-14T10:17:05.568Z,34.64
2019-02-14T10:18:05.559Z,34.84
2019-02-14T10:19:05.543Z,34.64
2019-02-14T10:20:05.532Z,34.92
2019-02-14T10:21:05.539Z,34.49
2019-02-14T10:22:05.509Z,33.36
2019-02-14T10:23:05.495Z,32.59
2019-02-14T10:24:05.483Z,31.45
2019-02-14T10:25:05.472Z,29.91
2019-02-14T10:26:05.483Z,30.78
2019-02-14T10:27:05.449Z,29.75
2019-02-14T10:28:05.444Z,30.07
2019-02-14T10:29:05.428Z,30.57
2019-02-14T10:30:05.416Z,29.66
2019-02-14T10:31:05.401Z,30.98
2019-02-14T10:32:05.410Z,29.99
2019-02-14T10:33:05.381Z,30.50
2019-02-14T10:34:05.367Z,29.95
2019-02-14T10:35:05.444Z,29.00
2019-02-14T10:36:05.361Z,26.29
2019-02-14T10:37:05.354Z,27.47
2019-02-14T10:38:05.320Z,26.54
2019-02-14T10:39:05.314Z,26.67
2019-02-14T10:40:05.298Z,26.59
2019-02-14T10:41:05.284Z,29.41
2019-02-14T10:42:05.274Z,28.23
2019-02-14T10:43:05.281Z,28.95
2019-02-14T10:44:05.250Z,29.28
2019-02-14T10:45:05.240Z,28.91
2019-02-14T10:46:05.227Z,28.88
2019-02-14T10:47:05.215Z,28.96
2019-02-14T10:48:05.222Z,29.38
2019-02-14T10:49:05.191Z,30.18
2019-02-14T10:50:05.181Z,28.17
2019-02-14T10:51:05.167Z,30.38
2019-02-14T10:52:05.160Z,29.29
2019-02-14T10:53:05.170Z,29.66
2019-02-14T10:54:05.133Z,27.92
2019-02-14T10:55:05.122Z,28.21
2019-02-14T10:56:05.108Z,27.70
2019-02-14T10:57:05.098Z,29.00
2019-02-14T10:58:05.085Z,26.29
2019-02-14T10:59:05.092Z,26.47
2019-02-14T11:00:05.067Z,27.17
2019-02-14T11:01:05.051Z,29.19
2019-02-14T11:02:05.038Z,29.01
2019-02-14T11:03:05.029Z,26.72
2019-02-14T11:04:05.035Z,28.32
2019-02-14T11:05:05.008Z,27.81
2019-02-14T11:06:04.993Z,26.48
2019-02-14T11:07:04.982Z,26.35
2019-02-14T11:08:04.970Z,26.64
2019-02-14T11:09:04.981Z,25.02
2019-02-14T11:10:04.945Z,25.21
2019-02-14T11:11:04.935Z,25.50
2019-02-14T11:12:04.924Z,24.66
2019-02-14T11:13:04.911Z,25.16
2019-02-14T11:14:04.899Z,24.84
2019-02-14T11:15:04.923Z,22.73
2019-02-14T11:16:04.876Z,23.33
2019-02-14T11:17:04.865Z,22.71
2019-02-14T11:18:04.853Z,22.50
2019-02-14T11:19:04.842Z,22.49
2019-02-14T11:20:04.831Z,21.00
2019-02-14T11:21:04.839Z,21.89
2019-02-14T11:22:04.808Z,24.18
2019-02-14T11:23:04.797Z,22.97
2019-02-14T11:24:04.787Z,21.62
2019-02-14T11:25:04.775Z,24.35
2019-02-14T11:26:04.782Z,23.30
2019-02-14T11:27:04.751Z,23.22
2019-02-14T11:28:04.741Z,24.24
2019-02-14T11:29:04.737Z,24.13
2019-02-14T11:30:04.726Z,23.50
2019-02-14T11:31:04.749Z,22.56
2019-02-14T11:32:04.699Z,23.52
2019-02-14T11:33:04.683Z,22.96
2019-02-14T11:34:04.670Z,22.91
2019-02-14T11:35:04.751Z,23.75
2019-02-14T11:36:04.689Z,25.24
2019-02-14T11:37:04.640Z,24.54
2019-02-14T11:38:04.627Z,22.52
2019-02-14T11:39:04.619Z,23.44
2019-02-14T11:40:04.605Z,24.08
2019-02-14T11:41:04.591Z,24.10
2019-02-14T11:42:04.601Z,24.01
2019-02-14T11:43:04.570Z,26.02
2019-02-14T11:44:04.558Z,24.74
2019-02-14T11:45:04.547Z,23.22
2019-02-14T11:46:04.533Z,23.08
2019-02-14T11:47:04.542Z,23.65
2019-02-14T11:48:04.512Z,21.22
2019-02-14T11:49:04.501Z,21.72
2019-02-14T11:50:06.488Z,20.42
2019-02-14T11:51:04.477Z,20.32
2019-02-14T11:52:04.485Z,20.92
2019-02-14T11:53:13.835Z,21.61
2019-02-14T11:54:05.441Z,20.11
2019-02-14T11:55:04.431Z,20.49
2019-02-14T11:56:04.419Z,20.57
2019-02-14T11:57:04.425Z,20.79
2019-02-14T11:58:04.395Z,20.59
2019-02-14T11:59:04.385Z,20.20
2019-02-14T12:00:04.372Z,20.62
2019-02-14T12:01:04.361Z,21.86
2019-02-14T12:02:04.367Z,21.30
2019-02-14T12:03:04.340Z,22.66
2019-02-14T12:04:04.328Z,22.44
2019-02-14T12:05:04.315Z,21.73
2019-02-14T12:06:04.304Z,21.53
2019-02-14T12:07:04.311Z,22.64
2019-02-14T12:08:04.281Z,22.13
2019-02-14T12:09:04.269Z,21.31
2019-02-14T12:10:12.976Z,20.79
2019-02-14T12:11:05.244Z,19.29
2019-02-14T12:12:04.256Z,20.37
2019-02-14T12:13:04.223Z,18.18
2019-02-14T12:14:04.213Z,20.17
2019-02-14T12:15:04.200Z,18.99
2019-02-14T12:16:04.189Z,19.48
2019-02-14T12:17:04.195Z,19.17
2019-02-14T12:18:04.166Z,20.25
2019-02-14T12:19:04.167Z,18.75
2019-02-14T12:20:04.144Z,18.45
2019-02-14T12:21:04.134Z,18.85
2019-02-14T12:22:04.145Z,18.24
2019-02-14T12:23:04.109Z,17.55
2019-02-14T12:24:04.098Z,18.45
2019-02-14T12:25:04.090Z,18.35
2019-02-14T12:26:05.709Z,17.86
2019-02-14T12:27:04.065Z,18.05
2019-02-14T12:28:04.071Z,18.44
2019-02-14T12:29:04.041Z,18.65
2019-02-14T12:30:04.029Z,19.16
2019-02-14T12:31:04.018Z,18.98
2019-02-14T12:32:04.027Z,19.59
2019-02-14T12:33:03.995Z,19.48
2019-02-14T12:34:03.985Z,18.07
2019-02-14T12:35:04.066Z,19.84
2019-02-14T12:36:03.969Z,18.54
2019-02-14T12:37:04.002Z,18.52
2019-02-14T12:38:03.957Z,17.44
2019-02-14T12:39:09.858Z,17.54
2019-02-14T12:40:04.915Z,17.85
2019-02-14T12:41:03.903Z,19.37
2019-02-14T12:42:03.892Z,19.98
2019-02-14T12:43:03.901Z,20.08
2019-02-14T12:44:03.874Z,20.68
2019-02-14T12:45:03.862Z,19.60
2019-02-14T12:46:03.847Z,18.60
2019-02-14T12:47:03.836Z,18.92
2019-02-14T12:48:03.844Z,18.84
2019-02-14T12:49:03.813Z,19.83
2019-02-14T12:50:03.802Z,20.43
2019-02-14T12:51:03.789Z,18.84
2019-02-14T12:52:03.782Z,18.24